Time;durP1;ratioP1;P1;durP2;ratioP2;P2;SDS_P1;SDS_P2;PMS_P1;PMS_P2;Temp;Humidity;BMP_temperature;BMP_pressure;BME280_temperature;BME280_humidity;BME280_pressure;Samples;Min_cycle;Max_cycle;Signal;HPM_P1;HPM_P2
2021/06/23 00:00:29;;;;;;;96.97;65.18;;;14.80;99.90;;;;;;5008957;28;20034;-61
2021/06/23 00:02:55;;;;;;;99.85;63.25;;;14.80;99.90;;;;;;5009119;28;20376;-61
2021/06/23 00:05:22;;;;;;;96.60;65.07;;;14.80;99.90;;;;;;5010013;28;20033;-63
2021/06/23 00:07:47;;;;;;;93.88;61.65;;;14.80;99.90;;;;;;5009703;28;20503;-65
2021/06/23 00:10:15;;;;;;;98.97;62.22;;;14.80;99.90;;;;;;5010388;28;20061;-63
2021/06/23 00:12:45;;;;;;;105.90;64.55;;;14.80;99.90;;;;;;5005412;28;20124;-64
2021/06/23 00:15:13;;;;;;;108.07;66.85;;;14.80;99.90;;;;;;5007932;28;20117;-60
2021/06/23 00:17:39;;;;;;;100.53;63.78;;;14.80;99.90;;;;;;5009255;28;20037;-62
2021/06/23 00:20:06;;;;;;;111.80;70.03;;;14.80;99.90;;;;;;5009963;28;20051;-61
2021/06/23 00:22:32;;;;;;;107.60;69.20;;;14.80;99.90;;;;;;5009729;28;20084;-63
2021/06/23 00:24:58;;;;;;;108.80;66.32;;;14.80;99.90;;;;;;5009782;28;20029;-63
2021/06/23 00:27:24;;;;;;;107.15;65.60;;;14.80;99.90;;;;;;5008866;28;20090;-65
2021/06/23 00:29:49;;;;;;;102.07;64.70;;;14.80;99.90;;;;;;5009444;28;20033;-64
2021/06/23 00:32:16;;;;;;;102.97;63.40;;;14.90;99.90;;;;;;5009943;28;20029;-64
2021/06/23 00:34:42;;;;;;;99.65;64.35;;;14.90;99.90;;;;;;5008580;28;20034;-64
2021/06/23 00:37:08;;;;;;;101.82;63.90;;;14.90;99.90;;;;;;5009369;28;20034;-65
2021/06/23 00:39:33;;;;;;;102.63;62.97;;;14.90;99.90;;;;;;5010302;28;20026;-64
2021/06/23 00:41:59;;;;;;;104.88;63.88;;;14.90;99.90;;;;;;5009481;28;20033;-64
2021/06/23 00:44:25;;;;;;;96.72;58.95;;;14.90;99.90;;;;;;5008934;28;20026;-63
2021/06/23 00:46:52;;;;;;;97.63;61.67;;;14.90;99.90;;;;;;5009795;28;20034;-64
2021/06/23 00:49:17;;;;;;;91.13;59.25;;;14.90;99.90;;;;;;5009793;28;20064;-63
2021/06/23 00:51:44;;;;;;;95.30;60.90;;;14.90;99.90;;;;;;5009612;28;20057;-63
2021/06/23 00:54:11;;;;;;;102.78;61.63;;;14.90;99.90;;;;;;5009740;28;20461;-64
2021/06/23 00:56:38;;;;;;;96.95;60.55;;;14.90;99.90;;;;;;5009125;28;20117;-63
2021/06/23 00:59:05;;;;;;;101.45;63.85;;;14.90;99.90;;;;;;5009458;28;20055;-63
2021/06/23 01:01:33;;;;;;;86.07;53.25;;;14.90;99.90;;;;;;5009344;28;20324;-62
2021/06/23 01:03:59;;;;;;;95.00;61.25;;;14.90;99.90;;;;;;5006647;28;20022;-64
2021/06/23 01:06:25;;;;;;;96.30;62.88;;;14.90;99.90;;;;;;5008159;28;20087;-65
2021/06/23 01:08:52;;;;;;;99.82;61.40;;;14.90;99.90;;;;;;5009747;28;20029;-65
2021/06/23 01:11:20;;;;;;;85.55;57.17;;;14.80;99.90;;;;;;5008407;28;20030;-65
2021/06/23 01:14:03;;;;;;;89.40;60.17;;;14.90;99.90;;;;;;5009261;28;20507;-64
2021/06/23 01:16:31;;;;;;;94.35;59.67;;;14.80;99.90;;;;;;5008197;28;20041;-64
2021/06/23 01:18:59;;;;;;;89.80;55.42;;;14.80;99.90;;;;;;5008767;28;20026;-63
2021/06/23 01:21:27;;;;;;;83.40;53.88;;;14.80;99.90;;;;;;5009571;28;20026;-63
2021/06/23 01:23:53;;;;;;;88.28;54.78;;;14.80;99.90;;;;;;5009138;28;20026;-63
2021/06/23 01:26:19;;;;;;;80.63;47.35;;;14.80;99.90;;;;;;5008559;28;20030;-64
2021/06/23 01:28:45;;;;;;;77.43;46.13;;;14.80;99.90;;;;;;5007938;28;20030;-64
2021/06/23 01:31:11;;;;;;;76.97;47.70;;;14.80;99.90;;;;;;5008371;28;20123;-63
2021/06/23 01:33:38;;;;;;;79.88;48.42;;;14.80;99.90;;;;;;5008934;28;20033;-63
2021/06/23 01:36:04;;;;;;;86.13;48.63;;;14.80;99.90;;;;;;5009677;28;20022;-64
2021/06/23 01:38:30;;;;;;;84.03;48.42;;;14.80;99.90;;;;;;5012907;28;20037;-64
2021/06/23 01:40:55;;;;;;;79.30;45.45;;;14.80;99.90;;;;;;5012813;28;20038;-63
2021/06/23 01:43:21;;;;;;;73.03;46.92;;;14.80;99.90;;;;;;5012818;28;20026;-63
2021/06/23 01:45:47;;;;;;;83.55;47.20;;;14.80;99.90;;;;;;5013097;28;20030;-61
2021/06/23 01:51:02;;;;;;;72.88;45.38;;;14.80;99.90;;;;;;4974525;23;20046;-62
2021/06/23 01:53:30;;;;;;;71.00;43.85;;;14.80;99.90;;;;;;4988894;28;20118;-61
2021/06/23 01:55:55;;;;;;;70.97;42.83;;;14.80;99.90;;;;;;4994987;28;20073;-61
2021/06/23 01:58:25;;;;;;;77.90;44.78;;;14.70;99.90;;;;;;4994477;28;20038;-62
2021/06/23 02:01:05;;;;;;;77.93;45.65;;;14.80;99.90;;;;;;4992265;28;20034;-62
2021/06/23 02:03:49;;;;;;;67.82;41.53;;;14.80;99.90;;;;;;4995019;28;20028;-63
2021/06/23 02:06:47;;;;;;;71.00;40.85;;;14.80;99.90;;;;;;4989464;28;20108;-62
2021/06/23 02:09:50;;;;;;;61.03;38.97;;;14.80;99.90;;;;;;5005461;23;20070;-62
2021/06/23 02:12:24;;;;;;;63.45;39.35;;;14.80;99.90;;;;;;4972282;28;20057;-65
2021/06/23 02:14:53;;;;;;;66.78;40.30;;;14.80;99.90;;;;;;4970747;28;20400;-64
2021/06/23 02:17:22;;;;;;;59.78;37.20;;;14.80;99.90;;;;;;4974490;28;20500;-64
2021/06/23 02:19:50;;;;;;;62.47;37.63;;;14.80;99.90;;;;;;4973247;28;20062;-64
2021/06/23 02:22:21;;;;;;;60.25;39.85;;;14.80;99.90;;;;;;4974728;28;20232;-63
2021/06/23 02:24:50;;;;;;;62.13;39.47;;;14.80;99.90;;;;;;4974382;28;20061;-63
2021/06/23 02:27:16;;;;;;;60.63;37.70;;;14.70;99.90;;;;;;4956111;28;20070;-64
2021/06/23 02:29:44;;;;;;;58.78;37.45;;;14.80;99.90;;;;;;4973557;28;20412;-64
2021/06/23 02:32:13;;;;;;;54.28;36.45;;;14.80;99.90;;;;;;4975015;28;20416;-64
2021/06/23 02:34:41;;;;;;;61.83;38.30;;;14.80;99.90;;;;;;4974115;28;20385;-64
2021/06/23 02:37:08;;;;;;;60.35;36.60;;;14.70;99.90;;;;;;4974423;28;20108;-63
2021/06/23 02:39:34;;;;;;;59.88;35.67;;;14.70;99.90;;;;;;4974247;28;20037;-64
2021/06/23 02:41:59;;;;;;;53.13;35.25;;;14.70;99.90;;;;;;4974478;28;20493;-64
2021/06/23 02:44:25;;;;;;;56.88;35.63;;;14.70;99.90;;;;;;4973850;28;20035;-64
2021/06/23 02:46:51;;;;;;;54.95;35.20;;;14.70;99.90;;;;;;4974122;28;20051;-63
2021/06/23 02:49:18;;;;;;;54.47;34.60;;;14.70;99.90;;;;;;4970438;28;20027;-61
2021/06/23 02:51:45;;;;;;;59.85;36.53;;;14.70;99.90;;;;;;4971813;28;20066;-64
2021/06/23 02:54:11;;;;;;;66.50;37.53;;;14.60;99.90;;;;;;4974044;28;20086;-64
2021/06/23 02:56:37;;;;;;;61.97;35.45;;;14.70;99.90;;;;;;4974084;28;20528;-63
2021/06/23 02:59:04;;;;;;;61.58;36.08;;;14.70;99.90;;;;;;4973177;28;20046;-63
2021/06/23 03:01:30;;;;;;;57.92;37.00;;;14.70;99.90;;;;;;4974149;28;20030;-64
2021/06/23 03:03:56;;;;;;;56.70;35.03;;;14.70;99.90;;;;;;4973955;28;20031;-65
2021/06/23 03:06:22;;;;;;;58.50;35.60;;;14.60;99.90;;;;;;4973712;28;20031;-63
2021/06/23 03:08:48;;;;;;;56.53;33.53;;;14.60;99.90;;;;;;4973958;28;20031;-65
2021/06/23 03:11:14;;;;;;;61.08;36.47;;;14.50;99.90;;;;;;4973946;28;20031;-63
2021/06/23 03:13:39;;;;;;;64.18;35.67;;;14.50;99.90;;;;;;4956482;28;20049;-62
2021/06/23 03:16:05;;;;;;;56.13;36.22;;;14.50;99.90;;;;;;4973085;28;20109;-64
2021/06/23 03:18:32;;;;;;;59.97;35.72;;;14.50;99.90;;;;;;4973435;28;20027;-64
2021/06/23 03:21:03;;;;;;;63.70;34.78;;;14.50;99.90;;;;;;4973805;28;20082;-63
2021/06/23 03:23:29;;;;;;;55.95;34.30;;;14.50;99.90;;;;;;4973987;28;20027;-62
2021/06/23 03:25:55;;;;;;;57.25;34.08;;;14.50;99.90;;;;;;4974045;28;20030;-61
2021/06/23 03:28:21;;;;;;;51.72;33.83;;;14.50;99.90;;;;;;4972804;28;20031;-63
2021/06/23 03:30:46;;;;;;;55.08;35.90;;;14.50;99.90;;;;;;4973790;28;20098;-62
2021/06/23 03:33:12;;;;;;;55.58;35.65;;;14.50;99.90;;;;;;4973535;28;20034;-63
2021/06/23 03:35:38;;;;;;;57.78;35.17;;;14.50;99.90;;;;;;4973568;28;20029;-63
2021/06/23 03:38:03;;;;;;;52.75;34.47;;;14.50;99.90;;;;;;4973699;28;20122;-61
2021/06/23 03:40:30;;;;;;;56.63;33.65;;;14.50;99.90;;;;;;4973352;28;20089;-63
2021/06/23 03:42:55;;;;;;;59.92;34.53;;;14.50;99.90;;;;;;4973055;28;20037;-62
2021/06/23 03:45:21;;;;;;;51.95;34.42;;;14.40;99.90;;;;;;4972601;28;20027;-61
2021/06/23 03:47:47;;;;;;;54.42;33.30;;;14.40;99.90;;;;;;4973749;28;20137;-63
2021/06/23 03:50:15;;;;;;;50.17;33.67;;;14.40;99.90;;;;;;4972425;28;20500;-64
2021/06/23 03:52:41;;;;;;;54.60;33.90;;;14.40;99.90;;;;;;4973371;28;20163;-64
2021/06/23 03:55:09;;;;;;;52.72;34.33;;;14.40;99.90;;;;;;4972238;28;20039;-63
2021/06/23 03:57:35;;;;;;;48.28;33.22;;;14.40;99.90;;;;;;4974209;28;20046;-64
2021/06/23 04:00:02;;;;;;;57.35;34.38;;;14.30;99.90;;;;;;4974004;28;20488;-63
2021/06/23 04:02:27;;;;;;;56.83;33.45;;;14.30;99.90;;;;;;4972497;28;20109;-62
2021/06/23 04:04:53;;;;;;;54.15;33.75;;;14.30;99.90;;;;;;4971891;28;20479;-63
2021/06/23 04:07:18;;;;;;;50.22;34.03;;;14.30;99.90;;;;;;4972128;28;20504;-62
2021/06/23 04:09:44;;;;;;;54.88;35.58;;;14.30;99.90;;;;;;4972568;28;20073;-63
2021/06/23 04:12:10;;;;;;;52.55;32.55;;;14.30;99.90;;;;;;4971815;28;20043;-64
2021/06/23 04:14:37;;;;;;;51.08;33.08;;;14.30;99.90;;;;;;4971904;28;20061;-61
2021/06/23 04:17:03;;;;;;;57.53;34.92;;;14.40;99.90;;;;;;4972030;28;20033;-64
2021/06/23 04:19:28;;;;;;;51.95;33.90;;;14.40;99.90;;;;;;4971832;28;20029;-63
2021/06/23 04:21:54;;;;;;;64.15;33.70;;;14.40;99.90;;;;;;4972055;28;20022;-64
2021/06/23 04:24:20;;;;;;;46.97;33.00;;;14.40;99.90;;;;;;4972185;28;20062;-63
2021/06/23 04:26:45;;;;;;;52.70;33.03;;;14.50;99.90;;;;;;4972232;28;20033;-63
2021/06/23 04:29:12;;;;;;;58.92;34.95;;;14.50;99.90;;;;;;4971856;28;20030;-63
2021/06/23 04:31:38;;;;;;;56.70;33.72;;;14.60;99.90;;;;;;4972362;28;20039;-64
2021/06/23 04:34:04;;;;;;;44.17;30.17;;;14.60;99.90;;;;;;4972301;28;20026;-63
2021/06/23 04:36:29;;;;;;;47.17;32.20;;;14.60;99.90;;;;;;4970106;28;20035;-62
2021/06/23 04:38:55;;;;;;;51.55;32.60;;;14.70;99.90;;;;;;4971920;28;20034;-62
2021/06/23 04:41:21;;;;;;;51.50;31.55;;;14.80;99.90;;;;;;4971980;28;20058;-63
2021/06/23 04:43:46;;;;;;;47.67;30.52;;;14.80;99.90;;;;;;4969065;28;20569;-60
2021/06/23 04:46:12;;;;;;;51.83;31.80;;;14.80;99.90;;;;;;4971342;28;20027;-61
2021/06/23 04:48:38;;;;;;;49.70;30.92;;;14.70;99.90;;;;;;4969766;28;20030;-63
2021/06/23 04:51:03;;;;;;;48.53;31.63;;;14.80;99.90;;;;;;4971299;28;20031;-63
2021/06/23 04:53:29;;;;;;;63.45;33.35;;;14.80;99.90;;;;;;4970957;28;20068;-64
2021/06/23 04:55:55;;;;;;;44.30;28.98;;;14.80;99.90;;;;;;4971041;28;20027;-64
2021/06/23 04:58:21;;;;;;;50.67;31.70;;;14.80;99.90;;;;;;4971775;28;20042;-64
2021/06/23 05:00:47;;;;;;;48.47;28.83;;;14.80;99.90;;;;;;4969690;28;21228;-64
2021/06/23 05:03:13;;;;;;;52.70;30.50;;;14.80;99.90;;;;;;4973447;28;20111;-63
2021/06/23 05:05:39;;;;;;;49.30;29.17;;;14.70;99.90;;;;;;4971144;28;20113;-64
2021/06/23 05:08:05;;;;;;;48.30;30.13;;;14.70;99.90;;;;;;4964206;28;20034;-62
2021/06/23 05:10:31;;;;;;;49.88;31.63;;;14.70;99.90;;;;;;4968508;28;20518;-63
2021/06/23 05:12:56;;;;;;;51.58;30.90;;;14.70;99.90;;;;;;4970803;28;20030;-64
2021/06/23 05:15:22;;;;;;;46.17;31.05;;;14.70;99.90;;;;;;4966668;28;20035;-62
2021/06/23 05:17:48;;;;;;;45.28;31.35;;;14.60;99.90;;;;;;4968094;28;20069;-63
2021/06/23 05:20:14;;;;;;;47.78;30.83;;;14.70;99.90;;;;;;4970202;28;20070;-63
2021/06/23 05:22:41;;;;;;;49.47;32.03;;;14.60;99.90;;;;;;4970578;28;20509;-63
2021/06/23 05:25:07;;;;;;;45.80;29.98;;;14.60;99.90;;;;;;4970602;28;20034;-63
2021/06/23 05:27:33;;;;;;;45.60;31.42;;;14.70;99.90;;;;;;4970052;28;20089;-64
2021/06/23 05:29:58;;;;;;;65.32;32.28;;;14.80;99.90;;;;;;4964804;28;20031;-63
2021/06/23 05:32:24;;;;;;;45.17;30.27;;;14.80;99.90;;;;;;4970378;28;20044;-63
2021/06/23 05:34:50;;;;;;;45.78;31.13;;;14.90;99.90;;;;;;4971432;28;20042;-62
2021/06/23 05:37:15;;;;;;;41.05;29.05;;;14.90;99.90;;;;;;4969879;28;20392;-63
2021/06/23 05:39:41;;;;;;;42.05;29.17;;;14.90;99.90;;;;;;4968011;28;20118;-64
2021/06/23 05:42:07;;;;;;;53.92;29.98;;;15.00;99.90;;;;;;4963152;28;20031;-63
2021/06/23 05:44:32;;;;;;;45.20;30.17;;;15.00;99.90;;;;;;4968650;28;20415;-61
2021/06/23 05:46:58;;;;;;;44.17;31.10;;;15.00;99.90;;;;;;4971418;28;20035;-64
2021/06/23 05:49:24;;;;;;;46.85;31.17;;;14.90;99.90;;;;;;4970412;28;20050;-64
2021/06/23 05:51:50;;;;;;;45.90;29.88;;;15.00;99.90;;;;;;4967220;28;20030;-64
2021/06/23 05:54:15;;;;;;;41.60;29.25;;;15.00;99.90;;;;;;4971120;28;20039;-64
2021/06/23 05:56:41;;;;;;;53.25;31.52;;;15.00;99.90;;;;;;4967380;28;20035;-63
2021/06/23 05:59:06;;;;;;;51.05;30.40;;;15.00;99.90;;;;;;4970123;28;20129;-64
2021/06/23 06:01:32;;;;;;;54.80;32.70;;;15.00;99.90;;;;;;4970860;28;20052;-63
2021/06/23 06:03:58;;;;;;;48.40;32.45;;;15.10;99.90;;;;;;4967417;28;20026;-65
2021/06/23 06:06:23;;;;;;;47.30;30.35;;;15.10;99.90;;;;;;4971138;28;20168;-64
2021/06/23 06:08:49;;;;;;;47.67;30.02;;;15.10;99.90;;;;;;4971058;28;20027;-64
2021/06/23 06:11:14;;;;;;;50.90;32.20;;;15.20;99.90;;;;;;4971010;28;20054;-63
2021/06/23 06:13:40;;;;;;;53.65;31.23;;;15.20;99.90;;;;;;4971633;28;20062;-63
2021/06/23 06:16:06;;;;;;;44.85;30.75;;;15.30;99.90;;;;;;4968841;28;20111;-64
2021/06/23 06:18:31;;;;;;;53.25;29.83;;;15.30;99.90;;;;;;4953978;28;20050;-63
2021/06/23 06:20:58;;;;;;;53.70;31.98;;;15.30;99.90;;;;;;4971053;28;20054;-63
2021/06/23 06:23:25;;;;;;;44.67;30.15;;;15.30;99.90;;;;;;4971942;28;20042;-62
2021/06/23 06:25:51;;;;;;;53.67;31.33;;;15.30;99.90;;;;;;4974746;28;20368;-61
2021/06/23 06:28:17;;;;;;;62.83;33.05;;;15.30;99.90;;;;;;4973516;28;20034;-61
2021/06/23 06:30:42;;;;;;;49.70;32.45;;;15.30;99.90;;;;;;4974138;28;20034;-61
2021/06/23 06:33:08;;;;;;;52.17;32.35;;;15.30;99.90;;;;;;4974536;28;20449;-63
2021/06/23 06:35:34;;;;;;;49.42;33.22;;;15.30;99.90;;;;;;4974465;28;20038;-62
2021/06/23 06:38:00;;;;;;;54.85;32.78;;;15.30;99.90;;;;;;4973329;28;20138;-64
2021/06/23 06:40:26;;;;;;;50.30;32.75;;;15.30;99.90;;;;;;4969800;28;20030;-65
2021/06/23 06:42:51;;;;;;;58.25;33.40;;;15.30;99.90;;;;;;4972687;28;20175;-65
2021/06/23 06:45:18;;;;;;;52.78;33.63;;;15.30;99.90;;;;;;4970288;28;20031;-64
2021/06/23 06:47:44;;;;;;;49.35;33.08;;;15.20;99.90;;;;;;4970792;28;20527;-65
2021/06/23 06:50:09;;;;;;;47.17;32.83;;;15.20;99.90;;;;;;4969850;28;20039;-64
2021/06/23 06:52:35;;;;;;;49.92;32.08;;;15.20;99.90;;;;;;4971012;28;20548;-64
2021/06/23 06:55:01;;;;;;;51.97;34.63;;;15.10;99.90;;;;;;4955561;28;20031;-65
2021/06/23 06:57:27;;;;;;;49.63;32.72;;;15.20;99.90;;;;;;4972132;28;20455;-65
2021/06/23 06:59:53;;;;;;;50.85;34.28;;;15.10;99.90;;;;;;4972370;28;20501;-65
2021/06/23 07:02:18;;;;;;;43.88;32.03;;;15.10;99.90;;;;;;4972515;28;20106;-65
2021/06/23 07:04:44;;;;;;;48.42;33.22;;;15.20;99.90;;;;;;4973458;28;20366;-66
2021/06/23 07:07:09;;;;;;;51.75;31.67;;;15.20;99.90;;;;;;4971237;28;20049;-65
2021/06/23 07:09:35;;;;;;;48.78;33.00;;;15.20;99.90;;;;;;4973408;28;20089;-65
2021/06/23 07:12:00;;;;;;;58.28;34.22;;;15.20;99.90;;;;;;4973489;28;20058;-65
2021/06/23 07:14:26;;;;;;;52.65;32.22;;;15.30;99.90;;;;;;4971898;28;20515;-65
2021/06/23 07:16:52;;;;;;;55.92;34.00;;;15.20;99.90;;;;;;4966001;28;20492;-65
2021/06/23 07:19:17;;;;;;;53.80;33.28;;;15.30;99.90;;;;;;4972604;28;20030;-65
2021/06/23 07:21:43;;;;;;;54.90;33.70;;;15.30;99.90;;;;;;4973595;28;20089;-65
2021/06/23 07:24:09;;;;;;;54.00;33.22;;;15.40;99.90;;;;;;4973365;28;20483;-66
2021/06/23 07:26:35;;;;;;;49.10;33.15;;;15.40;99.90;;;;;;4967512;28;20023;-65
2021/06/23 07:29:03;;;;;;;52.35;33.97;;;15.50;99.90;;;;;;4969038;28;20030;-65
2021/06/23 07:32:07;;;;;;;47.78;32.88;;;15.50;99.90;;;;;;4970755;28;20062;-65
2021/06/23 07:37:04;;;;;;;55.40;33.15;;;15.50;99.90;;;;;;4971460;28;20035;-65
2021/06/23 07:39:31;;;;;;;57.40;33.75;;;15.60;99.90;;;;;;4972130;28;20026;-66
2021/06/23 07:41:57;;;;;;;60.50;32.30;;;15.60;99.90;;;;;;4973183;28;20043;-66
2021/06/23 07:44:29;;;;;;;50.78;31.63;;;15.70;99.90;;;;;;4972804;28;20443;-65
2021/06/23 07:46:57;;;;;;;55.83;33.55;;;15.70;99.90;;;;;;4972552;28;20494;-65
2021/06/23 07:49:24;;;;;;;44.58;31.33;;;15.70;99.90;;;;;;4970446;28;20090;-65
2021/06/23 08:10:51;;;;;;;47.45;32.78;;;15.80;99.90;;;;;;4966126;28;20129;-65
2021/06/23 08:13:17;;;;;;;54.13;32.45;;;15.80;99.90;;;;;;4996860;23;20038;-61
2021/06/23 08:15:45;;;;;;;52.65;31.50;;;15.90;99.90;;;;;;4974046;28;20113;-61
2021/06/23 08:18:11;;;;;;;52.63;32.05;;;15.90;99.90;;;;;;4971331;28;20089;-61
2021/06/23 08:20:37;;;;;;;50.08;30.58;;;16.00;99.90;;;;;;4987161;28;20730;-63
2021/06/23 08:23:04;;;;;;;62.08;31.70;;;16.10;99.90;;;;;;4991286;28;20064;-62
2021/06/23 08:25:30;;;;;;;50.30;30.50;;;16.20;99.90;;;;;;4965241;28;20051;-62
2021/06/23 08:27:56;;;;;;;41.42;31.58;;;16.30;99.90;;;;;;4972477;28;20081;-64
2021/06/23 08:30:22;;;;;;;45.83;31.38;;;16.30;99.90;;;;;;4987354;28;20121;-63
2021/06/23 08:32:48;;;;;;;54.33;31.42;;;16.20;99.90;;;;;;4989706;28;20105;-64
2021/06/23 08:35:14;;;;;;;44.35;31.10;;;16.00;99.90;;;;;;4975812;28;20109;-63
2021/06/23 08:37:42;;;;;;;57.15;31.92;;;16.10;99.90;;;;;;4989090;28;20530;-60
2021/06/23 08:40:11;;;;;;;46.92;30.27;;;16.10;99.90;;;;;;4989832;28;20030;-63
2021/06/23 08:42:37;;;;;;;44.72;30.13;;;16.10;99.90;;;;;;4978471;28;20039;-64
2021/06/23 08:45:04;;;;;;;51.78;30.50;;;16.20;99.90;;;;;;4971706;28;20053;-61
2021/06/23 08:47:30;;;;;;;43.60;30.85;;;16.20;99.90;;;;;;4971526;28;20509;-61
2021/06/23 08:49:57;;;;;;;46.78;29.50;;;16.30;99.90;;;;;;4974074;28;20046;-62
2021/06/23 08:52:23;;;;;;;48.65;30.75;;;16.30;99.90;;;;;;4972915;28;20026;-62
2021/06/23 08:54:54;;;;;;;49.70;32.05;;;16.50;99.90;;;;;;4988849;28;20041;-61
2021/06/23 08:57:20;;;;;;;53.45;30.13;;;16.40;99.90;;;;;;4975076;28;20027;-63
2021/06/23 08:59:45;;;;;;;48.67;31.05;;;16.50;99.90;;;;;;4970698;28;20498;-63
2021/06/23 09:02:16;;;;;;;51.60;32.75;;;16.50;99.90;;;;;;4971612;28;20135;-62
2021/06/23 09:05:04;;;;;;;48.03;31.80;;;16.70;99.90;;;;;;4971344;28;20035;-64
2021/06/23 09:07:49;;;;;;;46.17;30.38;;;16.70;99.90;;;;;;4971576;28;20034;-63
2021/06/23 09:10:20;;;;;;;55.33;31.25;;;16.70;99.90;;;;;;4965814;28;20034;-64
2021/06/23 09:13:06;;;;;;;50.55;29.27;;;16.70;99.90;;;;;;4970935;28;20037;-64
2021/06/23 09:15:51;;;;;;;43.78;29.98;;;16.70;99.90;;;;;;4955185;28;20035;-63
2021/06/23 09:18:18;;;;;;;;;;;16.70;99.90;;;;;;4978035;28;20022;-63
2021/06/23 09:20:48;;;;;;;44.70;29.02;;;16.80;99.90;;;;;;4982685;28;19956;-62
2021/06/23 09:23:13;;;;;;;44.72;26.80;;;16.80;99.90;;;;;;4983670;28;20058;-62
2021/06/23 09:25:44;;;;;;;45.22;28.52;;;16.90;99.90;;;;;;4971470;28;20050;-62
2021/06/23 09:28:18;;;;;;;49.92;28.65;;;16.90;99.90;;;;;;4970593;28;20023;-63
2021/06/23 09:30:45;;;;;;;45.95;29.45;;;16.90;99.90;;;;;;4971351;28;20027;-59
2021/06/23 09:33:25;;;;;;;46.92;28.27;;;16.90;99.90;;;;;;4970398;28;20043;-63
2021/06/23 09:35:57;;;;;;;40.65;28.35;;;16.90;99.90;;;;;;4969012;28;20035;-62
2021/06/23 09:38:37;;;;;;;42.75;29.38;;;16.90;99.90;;;;;;4989489;28;20030;-64
2021/06/23 09:41:27;;;;;;;40.13;27.75;;;17.00;99.90;;;;;;4972499;28;20095;-62
2021/06/23 09:43:56;;;;;;;44.05;27.75;;;17.10;99.90;;;;;;4978278;28;20026;-61
2021/06/23 09:46:26;;;;;;;38.17;26.95;;;17.30;99.90;;;;;;4975394;28;20038;-63
2021/06/23 09:49:01;;;;;;;40.58;26.25;;;17.50;99.90;;;;;;4971145;28;20408;-63
2021/06/23 09:51:27;;;;;;;45.22;28.20;;;17.70;99.90;;;;;;4982918;28;20039;-63
2021/06/23 09:54:01;;;;;;;43.83;27.42;;;17.80;99.90;;;;;;4983064;28;20061;-63
2021/06/23 09:56:37;;;;;;;46.40;27.73;;;17.80;99.90;;;;;;4979741;28;20117;-62
2021/06/23 09:59:04;;;;;;;43.10;25.77;;;17.90;99.90;;;;;;4971974;28;20090;-61
2021/06/23 10:01:36;;;;;;;38.45;27.15;;;17.80;99.90;;;;;;4979265;28;20431;-64
2021/06/23 10:04:06;;;;;;;39.13;27.65;;;17.90;99.90;;;;;;4989460;28;20472;-60
2021/06/23 10:06:33;;;;;;;42.58;27.55;;;17.90;99.90;;;;;;4977188;28;20489;-61
2021/06/23 10:09:21;;;;;;;41.03;26.23;;;18.10;99.90;;;;;;4985098;28;20023;-63
2021/06/23 10:11:48;;;;;;;38.08;25.80;;;18.10;99.90;;;;;;4969606;28;20030;-60
2021/06/23 10:14:14;;;;;;;37.20;24.08;;;18.30;99.90;;;;;;4971267;28;20034;-62
2021/06/23 10:16:40;;;;;;;41.92;25.55;;;18.20;99.90;;;;;;4970555;28;20766;-58
2021/06/23 10:19:07;;;;;;;43.70;25.33;;;18.20;99.90;;;;;;4970910;28;20838;-62
2021/06/23 10:21:34;;;;;;;43.50;26.50;;;17.90;99.90;;;;;;4980512;28;20542;-59
2021/06/23 10:24:00;;;;;;;46.80;27.70;;;17.90;99.90;;;;;;4972468;28;20042;-64
2021/06/23 10:26:27;;;;;;;44.13;28.10;;;17.80;99.90;;;;;;4971438;28;20039;-62
2021/06/23 10:28:54;;;;;;;47.13;28.00;;;17.70;99.90;;;;;;4980694;28;20377;-61
2021/06/23 10:31:25;;;;;;;39.35;27.13;;;17.60;99.90;;;;;;4983511;28;20023;-63
2021/06/23 10:33:50;;;;;;;41.60;28.02;;;17.70;99.90;;;;;;4978540;28;20038;-62
2021/06/23 10:36:16;;;;;;;54.35;29.45;;;17.80;99.90;;;;;;4979075;28;20090;-62
2021/06/23 10:38:43;;;;;;;52.70;29.13;;;17.80;99.90;;;;;;4971223;28;20027;-60
2021/06/23 10:41:10;;;;;;;55.85;27.48;;;17.70;99.90;;;;;;4974701;28;20022;-62
2021/06/23 10:43:35;;;;;;;44.95;27.85;;;17.70;99.90;;;;;;4971418;28;20396;-60
2021/06/23 10:46:01;;;;;;;38.50;27.35;;;17.80;99.90;;;;;;4955104;28;20034;-59
2021/06/23 10:48:27;;;;;;;48.50;27.80;;;17.90;99.90;;;;;;4970799;28;20073;-59
2021/06/23 10:50:53;;;;;;;47.20;27.58;;;17.90;99.90;;;;;;4967329;28;20041;-62
2021/06/23 10:53:37;;;;;;;42.22;26.02;;;18.00;99.90;;;;;;4970509;28;20043;-60
2021/06/23 10:56:04;;;;;;;40.60;27.50;;;18.00;99.90;;;;;;4966392;28;20161;-62
2021/06/23 10:58:33;;;;;;;45.95;28.02;;;18.10;99.90;;;;;;4982816;28;20293;-61
2021/06/23 11:01:13;;;;;;;55.88;28.45;;;17.80;99.90;;;;;;4973657;28;20396;-61
2021/06/23 11:03:59;;;;;;;44.03;27.55;;;17.70;99.90;;;;;;4970884;28;20030;-63
2021/06/23 11:06:45;;;;;;;46.75;29.52;;;17.70;99.90;;;;;;4970420;28;20061;-60
2021/06/23 11:09:21;;;;;;;49.17;29.42;;;17.70;99.90;;;;;;4964169;28;20674;-62
2021/06/23 11:11:48;;;;;;;50.95;29.40;;;17.70;99.90;;;;;;4984123;28;20429;-60
2021/06/23 11:14:19;;;;;;;50.42;30.92;;;17.60;99.90;;;;;;4983871;28;20035;-61
2021/06/23 11:16:44;;;;;;;49.63;31.35;;;17.40;99.90;;;;;;4978288;28;20030;-62
2021/06/23 11:19:11;;;;;;;46.45;29.70;;;17.50;99.90;;;;;;4989281;28;20100;-60
2021/06/23 11:21:37;;;;;;;52.35;31.13;;;17.50;99.90;;;;;;4970034;28;20059;-61
2021/06/23 11:24:17;;;;;;;45.22;30.17;;;17.60;99.90;;;;;;4970337;28;20287;-64
2021/06/23 11:26:43;;;;;;;42.85;28.67;;;17.70;99.90;;;;;;4977302;28;20037;-62
2021/06/23 11:29:09;;;;;;;81.57;30.67;;;17.90;99.90;;;;;;4973543;28;20035;-60
2021/06/23 11:31:46;;;;;;;44.72;26.60;;;18.00;99.90;;;;;;4970093;28;20250;-63
2021/06/23 11:34:34;;;;;;;43.78;28.08;;;18.20;99.90;;;;;;4970469;28;20549;-60
2021/06/23 11:37:00;;;;;;;39.40;26.65;;;18.50;99.90;;;;;;4978372;28;20030;-61
2021/06/23 11:39:26;;;;;;;47.90;27.67;;;18.70;99.90;;;;;;4968453;28;20109;-62
2021/06/23 11:41:52;;;;;;;42.03;26.70;;;18.90;99.90;;;;;;4982147;28;20042;-60
2021/06/23 11:44:18;;;;;;;45.75;28.25;;;19.00;99.90;;;;;;4980463;28;20538;-64
2021/06/23 11:46:44;;;;;;;42.40;25.27;;;18.80;99.90;;;;;;4970303;28;20034;-61
2021/06/23 11:49:10;;;;;;;48.97;26.52;;;18.90;99.90;;;;;;4969532;28;20373;-60
2021/06/23 11:51:35;;;;;;;44.42;26.80;;;19.10;99.90;;;;;;4979498;28;20166;-64
2021/06/23 11:54:03;;;;;;;81.18;29.20;;;19.30;99.90;;;;;;4976361;28;20054;-63
2021/06/23 11:56:29;;;;;;;41.33;25.20;;;19.30;99.90;;;;;;4978363;28;20045;-60
2021/06/23 11:58:55;;;;;;;43.90;26.48;;;19.40;99.90;;;;;;4986058;28;20447;-60
2021/06/23 12:01:20;;;;;;;41.67;24.90;;;19.30;99.90;;;;;;4984624;28;20037;-59
2021/06/23 12:03:48;;;;;;;39.47;23.02;;;19.20;99.90;;;;;;4984525;28;20030;-63
2021/06/23 12:06:13;;;;;;;38.10;23.70;;;19.30;99.90;;;;;;4982462;28;20077;-61
2021/06/23 12:08:39;;;;;;;38.47;23.48;;;19.40;99.90;;;;;;4972624;28;20043;-61
2021/06/23 12:11:04;;;;;;;36.20;23.25;;;19.50;99.90;;;;;;4989073;28;20080;-62
2021/06/23 12:13:30;;;;;;;39.60;23.02;;;19.50;99.90;;;;;;4975676;28;20045;-59
2021/06/23 12:15:55;;;;;;;37.33;24.05;;;19.50;99.90;;;;;;4977388;28;20110;-60
2021/06/23 12:18:21;;;;;;;35.35;22.52;;;19.50;99.90;;;;;;4972046;28;20027;-61
2021/06/23 12:20:47;;;;;;;36.53;22.10;;;19.40;99.90;;;;;;4972412;28;20031;-58
2021/06/23 12:23:12;;;;;;;38.92;22.17;;;19.50;99.90;;;;;;4990567;28;20062;-59
2021/06/23 12:25:40;;;;;;;40.88;23.48;;;19.40;99.90;;;;;;4988622;28;20039;-63
2021/06/23 12:28:07;;;;;;;38.05;22.90;;;19.60;99.90;;;;;;4973172;28;20030;-62
2021/06/23 12:30:34;;;;;;;37.55;21.27;;;19.60;99.90;;;;;;4973596;28;20039;-61
2021/06/23 12:33:03;;;;;;;36.28;22.48;;;19.60;99.90;;;;;;4973710;28;20046;-62
2021/06/23 12:35:29;;;;;;;36.63;21.83;;;19.70;99.90;;;;;;4972856;28;20396;-60
2021/06/23 12:37:54;;;;;;;34.25;22.95;;;19.60;99.90;;;;;;4989477;28;20022;-60
2021/06/23 12:40:21;;;;;;;39.60;21.85;;;19.90;99.90;;;;;;4991840;28;20033;-59
2021/06/23 12:42:47;;;;;;;40.95;22.70;;;20.00;99.90;;;;;;4988563;28;20488;-61
2021/06/23 12:45:12;;;;;;;42.35;22.77;;;20.10;99.90;;;;;;4973353;28;20050;-62
2021/06/23 12:47:38;;;;;;;35.83;22.67;;;20.00;99.90;;;;;;4974188;28;20170;-60
2021/06/23 12:50:05;;;;;;;34.83;22.35;;;19.50;99.90;;;;;;4988677;28;20027;-60
2021/06/23 12:52:31;;;;;;;29.67;19.88;;;19.70;99.90;;;;;;4991614;28;20154;-61